CheckWX is a tool to help pilots better visualize weather data.  It is not intended as a substitute for an official pre-flight weather briefing.

20:03:45 UTC

LETO TAF
Torrejón Airport
Madrid, Spain
TAF LETO 251700Z 2518/2618 17010KT CAVOK TX39/2616Z TN20/2605Z TEMPO 2518/2524 VRB04KT TEMPO 2613/2618 17015G25KT

Jun-25@
18:00 UTC

Jun-25 @ 18:00 UTC

Jun-26@
18:00 UTC

Jun-26 @ 18:00 UTC

TAF LETO 251700Z 2518/2618 17010KT CAVOK TX39/2616Z TN20/2605Z
Wind
  • 170° at 10 KTS
Cloud Levels
  • No significant clouds

Jun-25@
18:00 UTC

Jun-25 @ 18:00 UTC

Jun-26@
00:00 UTC

Jun-26 @ 00:00 UTC

TEMPO 2518/2524 VRB04KT

Temporary

Temporary Changes expected for less than half the time period

Wind
  • Variable at 4 KTS

Jun-26@
13:00 UTC

Jun-26 @ 13:00 UTC

Jun-26@
18:00 UTC

Jun-26 @ 18:00 UTC

TEMPO 2613/2618 17015G25KT

Temporary

Temporary Changes expected for less than half the time period

Wind
  • 170° at 15 KTS
  • {Gusting to 25 KTS